sensor_id;sensor_type;location;lat;lon;timestamp;temperature;humidity
12254;DHT22;6189;52.526;13.390;2023-07-30T00:02:21;20.40;99.90
12254;DHT22;6189;52.526;13.390;2023-07-30T00:05:09;20.50;99.90
12254;DHT22;6189;52.526;13.390;2023-07-30T00:07:57;20.40;99.90
12254;DHT22;6189;52.526;13.390;2023-07-30T00:10:44;20.40;99.90
12254;DHT22;6189;52.526;13.390;2023-07-30T00:13:31;20.40;99.90
12254;DHT22;6189;52.526;13.390;2023-07-30T00:16:18;20.30;99.90
12254;DHT22;6189;52.526;13.390;2023-07-30T00:19:05;20.30;99.90
12254;DHT22;6189;52.526;13.390;2023-07-30T00:21:54;20.30;99.90
12254;DHT22;6189;52.526;13.390;2023-07-30T00:24:41;20.30;99.90
12254;DHT22;6189;52.526;13.390;2023-07-30T00:27:28;20.30;99.90
12254;DHT22;6189;52.526;13.390;2023-07-30T00:30:15;20.40;99.90
12254;DHT22;6189;52.526;13.390;2023-07-30T00:33:02;20.30;99.90
12254;DHT22;6189;52.526;13.390;2023-07-30T00:35:50;20.30;99.90
12254;DHT22;6189;52.526;13.390;2023-07-30T00:38:39;20.30;99.90
12254;DHT22;6189;52.526;13.390;2023-07-30T00:41:26;20.30;99.90
12254;DHT22;6189;52.526;13.390;2023-07-30T00:44:13;20.30;99.90
12254;DHT22;6189;52.526;13.390;2023-07-30T00:47:01;20.30;99.90
12254;DHT22;6189;52.526;13.390;2023-07-30T00:49:49;20.20;99.90
12254;DHT22;6189;52.526;13.390;2023-07-30T00:52:36;20.20;99.90
12254;DHT22;6189;52.526;13.390;2023-07-30T00:55:25;20.20;99.90
12254;DHT22;6189;52.526;13.390;2023-07-30T00:58:12;20.20;99.90
12254;DHT22;6189;52.526;13.390;2023-07-30T01:00:59;20.10;99.90
12254;DHT22;6189;52.526;13.390;2023-07-30T01:03:47;20.10;99.90
12254;DHT22;6189;52.526;13.390;2023-07-30T01:06:35;20.10;99.90
12254;DHT22;6189;52.526;13.390;2023-07-30T01:09:22;20.10;99.90
12254;DHT22;6189;52.526;13.390;2023-07-30T01:12:11;20.10;99.90
12254;DHT22;6189;52.526;13.390;2023-07-30T01:15:00;20.10;99.90
12254;DHT22;6189;52.526;13.390;2023-07-30T01:17:47;20.00;99.90
12254;DHT22;6189;52.526;13.390;2023-07-30T01:20:34;20.00;99.90
12254;DHT22;6189;52.526;13.390;2023-07-30T01:23:25;20.00;99.90
12254;DHT22;6189;52.526;13.390;2023-07-30T01:26:12;20.00;99.90
12254;DHT22;6189;52.526;13.390;2023-07-30T01:29:07;20.00;99.90
12254;DHT22;6189;52.526;13.390;2023-07-30T01:31:57;20.00;99.90
12254;DHT22;6189;52.526;13.390;2023-07-30T01:34:44;20.00;99.90
12254;DHT22;6189;52.526;13.390;2023-07-30T01:37:32;20.00;99.90
12254;DHT22;6189;52.526;13.390;2023-07-30T01:40:22;19.90;99.90
12254;DHT22;6189;52.526;13.390;2023-07-30T01:43:09;19.90;99.90
12254;DHT22;6189;52.526;13.390;2023-07-30T01:45:56;19.90;99.90
12254;DHT22;6189;52.526;13.390;2023-07-30T01:48:44;19.90;99.90
12254;DHT22;6189;52.526;13.390;2023-07-30T01:51:31;19.90;99.90
12254;DHT22;6189;52.526;13.390;2023-07-30T01:54:18;19.90;99.90
12254;DHT22;6189;52.526;13.390;2023-07-30T01:57:07;19.80;99.90
12254;DHT22;6189;52.526;13.390;2023-07-30T01:59:54;19.90;99.90
12254;DHT22;6189;52.526;13.390;2023-07-30T02:02:41;19.90;99.90
12254;DHT22;6189;52.526;13.390;2023-07-30T02:05:29;19.90;99.90
12254;DHT22;6189;52.526;13.390;2023-07-30T02:08:16;19.80;99.90
12254;DHT22;6189;52.526;13.390;2023-07-30T02:11:03;19.70;99.90
12254;DHT22;6189;52.526;13.390;2023-07-30T02:13:51;19.80;99.90
12254;DHT22;6189;52.526;13.390;2023-07-30T02:16:38;19.70;99.90
12254;DHT22;6189;52.526;13.390;2023-07-30T02:19:25;19.70;99.90
12254;DHT22;6189;52.526;13.390;2023-07-30T02:22:12;19.70;99.90
12254;DHT22;6189;52.526;13.390;2023-07-30T02:25:00;19.70;99.90
12254;DHT22;6189;52.526;13.390;2023-07-30T02:27:47;19.70;99.90
12254;DHT22;6189;52.526;13.390;2023-07-30T02:30:35;19.70;99.90
12254;DHT22;6189;52.526;13.390;2023-07-30T02:33:22;19.70;99.90
12254;DHT22;6189;52.526;13.390;2023-07-30T02:36:09;19.70;99.90
12254;DHT22;6189;52.526;13.390;2023-07-30T02:38:56;19.70;99.90
12254;DHT22;6189;52.526;13.390;2023-07-30T02:41:44;19.70;99.90
12254;DHT22;6189;52.526;13.390;2023-07-30T02:44:31;19.70;99.90
12254;DHT22;6189;52.526;13.390;2023-07-30T02:47:19;19.70;99.90
12254;DHT22;6189;52.526;13.390;2023-07-30T02:50:08;19.70;99.90
12254;DHT22;6189;52.526;13.390;2023-07-30T02:52:55;19.70;99.90
12254;DHT22;6189;52.526;13.390;2023-07-30T02:55:42;19.70;99.90
12254;DHT22;6189;52.526;13.390;2023-07-30T02:58:29;19.70;99.90
12254;DHT22;6189;52.526;13.390;2023-07-30T03:01:19;19.60;99.90
12254;DHT22;6189;52.526;13.390;2023-07-30T03:04:08;19.60;99.90
12254;DHT22;6189;52.526;13.390;2023-07-30T03:06:55;19.60;99.90
12254;DHT22;6189;52.526;13.390;2023-07-30T03:09:42;19.60;99.90
12254;DHT22;6189;52.526;13.390;2023-07-30T03:12:29;19.60;99.90
12254;DHT22;6189;52.526;13.390;2023-07-30T03:15:16;19.60;99.90
12254;DHT22;6189;52.526;13.390;2023-07-30T03:18:03;19.60;99.90
12254;DHT22;6189;52.526;13.390;2023-07-30T03:20:52;19.60;99.90
12254;DHT22;6189;52.526;13.390;2023-07-30T03:23:43;19.60;99.90
12254;DHT22;6189;52.526;13.390;2023-07-30T03:26:30;19.60;99.90
12254;DHT22;6189;52.526;13.390;2023-07-30T03:29:18;19.60;99.90
12254;DHT22;6189;52.526;13.390;2023-07-30T03:32:05;19.60;99.90
12254;DHT22;6189;52.526;13.390;2023-07-30T03:34:52;19.60;99.90
12254;DHT22;6189;52.526;13.390;2023-07-30T03:37:41;19.60;99.90
12254;DHT22;6189;52.526;13.390;2023-07-30T03:40:28;19.50;99.90
12254;DHT22;6189;52.526;13.390;2023-07-30T03:43:16;19.50;99.90
12254;DHT22;6189;52.526;13.390;2023-07-30T03:46:03;19.40;99.90
12254;DHT22;6189;52.526;13.390;2023-07-30T03:48:51;19.30;99.90
12254;DHT22;6189;52.526;13.390;2023-07-30T03:51:38;19.30;99.90
12254;DHT22;6189;52.526;13.390;2023-07-30T03:54:26;19.40;99.90
12254;DHT22;6189;52.526;13.390;2023-07-30T03:57:14;19.40;99.90
12254;DHT22;6189;52.526;13.390;2023-07-30T04:00:01;19.40;99.90
12254;DHT22;6189;52.526;13.390;2023-07-30T04:02:49;19.40;99.90
12254;DHT22;6189;52.526;13.390;2023-07-30T04:05:36;19.50;99.90
12254;DHT22;6189;52.526;13.390;2023-07-30T04:08:23;19.50;99.90
12254;DHT22;6189;52.526;13.390;2023-07-30T04:11:12;19.40;99.90
12254;DHT22;6189;52.526;13.390;2023-07-30T04:13:59;19.50;99.90
12254;DHT22;6189;52.526;13.390;2023-07-30T04:16:46;19.50;99.90
12254;DHT22;6189;52.526;13.390;2023-07-30T04:19:34;19.50;99.90
12254;DHT22;6189;52.526;13.390;2023-07-30T04:22:21;19.30;99.90
12254;DHT22;6189;52.526;13.390;2023-07-30T04:25:09;19.10;99.90
12254;DHT22;6189;52.526;13.390;2023-07-30T04:27:57;18.70;99.90
12254;DHT22;6189;52.526;13.390;2023-07-30T04:30:44;18.60;99.90
12254;DHT22;6189;52.526;13.390;2023-07-30T04:33:32;18.90;99.90
12254;DHT22;6189;52.526;13.390;2023-07-30T04:36:20;19.00;99.90
12254;DHT22;6189;52.526;13.390;2023-07-30T04:39:07;19.20;99.90
12254;DHT22;6189;52.526;13.390;2023-07-30T04:41:54;19.10;99.90
12254;DHT22;6189;52.526;13.390;2023-07-30T04:44:43;19.00;99.90
12254;DHT22;6189;52.526;13.390;2023-07-30T04:47:30;19.00;99.90
12254;DHT22;6189;52.526;13.390;2023-07-30T04:50:17;19.00;99.90
12254;DHT22;6189;52.526;13.390;2023-07-30T04:53:04;18.90;99.90
12254;DHT22;6189;52.526;13.390;2023-07-30T04:55:54;19.10;99.90
12254;DHT22;6189;52.526;13.390;2023-07-30T04:58:41;19.20;99.90
12254;DHT22;6189;52.526;13.390;2023-07-30T05:01:30;19.30;99.90
12254;DHT22;6189;52.526;13.390;2023-07-30T05:04:17;19.30;99.90
12254;DHT22;6189;52.526;13.390;2023-07-30T05:07:04;19.30;99.90
12254;DHT22;6189;52.526;13.390;2023-07-30T05:09:52;19.40;99.90
12254;DHT22;6189;52.526;13.390;2023-07-30T05:12:39;19.40;99.90
12254;DHT22;6189;52.526;13.390;2023-07-30T05:15:26;19.30;99.90
12254;DHT22;6189;52.526;13.390;2023-07-30T05:18:15;19.30;99.90
12254;DHT22;6189;52.526;13.390;2023-07-30T05:21:02;19.40;99.90
12254;DHT22;6189;52.526;13.390;2023-07-30T05:23:49;19.40;99.90
12254;DHT22;6189;52.526;13.390;2023-07-30T05:26:36;19.40;99.90
12254;DHT22;6189;52.526;13.390;2023-07-30T05:29:24;19.50;99.90
12254;DHT22;6189;52.526;13.390;2023-07-30T05:32:11;19.50;99.90
12254;DHT22;6189;52.526;13.390;2023-07-30T05:35:00;19.60;99.90
12254;DHT22;6189;52.526;13.390;2023-07-30T05:37:47;19.60;99.90
12254;DHT22;6189;52.526;13.390;2023-07-30T05:40:35;19.70;99.90
12254;DHT22;6189;52.526;13.390;2023-07-30T05:43:22;19.60;99.90
12254;DHT22;6189;52.526;13.390;2023-07-30T05:46:09;19.60;99.90
12254;DHT22;6189;52.526;13.390;2023-07-30T05:48:56;19.50;99.90
12254;DHT22;6189;52.526;13.390;2023-07-30T05:51:45;19.60;99.90
12254;DHT22;6189;52.526;13.390;2023-07-30T05:54:32;19.60;99.90
12254;DHT22;6189;52.526;13.390;2023-07-30T05:57:19;19.60;99.90
12254;DHT22;6189;52.526;13.390;2023-07-30T06:00:07;19.70;99.90
12254;DHT22;6189;52.526;13.390;2023-07-30T06:02:54;19.80;99.90
12254;DHT22;6189;52.526;13.390;2023-07-30T06:05:41;19.80;99.90
12254;DHT22;6189;52.526;13.390;2023-07-30T06:08:30;19.80;99.90
12254;DHT22;6189;52.526;13.390;2023-07-30T06:11:17;19.90;99.90
12254;DHT22;6189;52.526;13.390;2023-07-30T06:14:04;19.90;99.90
12254;DHT22;6189;52.526;13.390;2023-07-30T06:16:51;19.90;99.90
12254;DHT22;6189;52.526;13.390;2023-07-30T06:19:39;19.90;99.90
12254;DHT22;6189;52.526;13.390;2023-07-30T06:22:26;19.90;99.90
12254;DHT22;6189;52.526;13.390;2023-07-30T06:25:14;20.00;99.90
12254;DHT22;6189;52.526;13.390;2023-07-30T06:28:02;20.00;99.90
12254;DHT22;6189;52.526;13.390;2023-07-30T06:30:49;20.10;99.90
12254;DHT22;6189;52.526;13.390;2023-07-30T06:33:36;20.10;99.90
12254;DHT22;6189;52.526;13.390;2023-07-30T06:36:24;20.10;99.90
12254;DHT22;6189;52.526;13.390;2023-07-30T06:39:11;20.10;99.90
12254;DHT22;6189;52.526;13.390;2023-07-30T06:41:59;20.10;99.90
12254;DHT22;6189;52.526;13.390;2023-07-30T06:44:46;20.20;99.90
12254;DHT22;6189;52.526;13.390;2023-07-30T06:47:33;20.20;99.90
12254;DHT22;6189;52.526;13.390;2023-07-30T06:50:21;20.20;99.90
12254;DHT22;6189;52.526;13.390;2023-07-30T06:53:08;20.20;99.90
12254;DHT22;6189;52.526;13.390;2023-07-30T06:55:55;20.30;99.90
12254;DHT22;6189;52.526;13.390;2023-07-30T06:58:44;20.30;99.90
12254;DHT22;6189;52.526;13.390;2023-07-30T07:01:31;20.30;99.90
12254;DHT22;6189;52.526;13.390;2023-07-30T07:04:21;20.40;99.90
12254;DHT22;6189;52.526;13.390;2023-07-30T07:07:08;20.40;99.90
12254;DHT22;6189;52.526;13.390;2023-07-30T07:09:55;20.40;99.90
12254;DHT22;6189;52.526;13.390;2023-07-30T07:12:43;20.40;99.90
12254;DHT22;6189;52.526;13.390;2023-07-30T07:15:33;20.50;99.90
12254;DHT22;6189;52.526;13.390;2023-07-30T07:18:20;20.50;99.90
12254;DHT22;6189;52.526;13.390;2023-07-30T07:21:07;20.50;99.90
12254;DHT22;6189;52.526;13.390;2023-07-30T07:23:55;20.50;99.90
12254;DHT22;6189;52.526;13.390;2023-07-30T07:26:42;20.50;99.90
12254;DHT22;6189;52.526;13.390;2023-07-30T07:29:29;20.60;99.90
12254;DHT22;6189;52.526;13.390;2023-07-30T07:32:19;20.70;99.90
12254;DHT22;6189;52.526;13.390;2023-07-30T07:35:07;20.80;99.90
12254;DHT22;6189;52.526;13.390;2023-07-30T07:37:54;20.80;99.90
12254;DHT22;6189;52.526;13.390;2023-07-30T07:40:41;20.90;99.90
12254;DHT22;6189;52.526;13.390;2023-07-30T07:43:29;20.90;99.90
12254;DHT22;6189;52.526;13.390;2023-07-30T07:46:16;20.90;99.90
12254;DHT22;6189;52.526;13.390;2023-07-30T07:49:04;21.00;99.90
12254;DHT22;6189;52.526;13.390;2023-07-30T07:51:54;21.10;99.90
12254;DHT22;6189;52.526;13.390;2023-07-30T07:54:41;21.10;99.90
12254;DHT22;6189;52.526;13.390;2023-07-30T07:57:29;21.00;99.90
12254;DHT22;6189;52.526;13.390;2023-07-30T08:00:17;21.10;99.90
12254;DHT22;6189;52.526;13.390;2023-07-30T08:03:04;21.10;99.90
12254;DHT22;6189;52.526;13.390;2023-07-30T08:05:52;21.20;99.90
12254;DHT22;6189;52.526;13.390;2023-07-30T08:08:40;21.30;99.90
12254;DHT22;6189;52.526;13.390;2023-07-30T08:11:27;21.30;99.90
12254;DHT22;6189;52.526;13.390;2023-07-30T08:14:15;21.40;99.90
12254;DHT22;6189;52.526;13.390;2023-07-30T08:17:02;21.40;99.90
12254;DHT22;6189;52.526;13.390;2023-07-30T08:19:50;21.50;99.90
12254;DHT22;6189;52.526;13.390;2023-07-30T08:22:38;21.50;99.90
12254;DHT22;6189;52.526;13.390;2023-07-30T08:25:25;21.60;99.90
12254;DHT22;6189;52.526;13.390;2023-07-30T08:28:13;21.70;99.90
12254;DHT22;6189;52.526;13.390;2023-07-30T08:31:00;21.80;99.90
12254;DHT22;6189;52.526;13.390;2023-07-30T08:33:47;21.80;99.90
12254;DHT22;6189;52.526;13.390;2023-07-30T08:36:34;21.80;99.90
12254;DHT22;6189;52.526;13.390;2023-07-30T08:39:23;21.90;99.90
12254;DHT22;6189;52.526;13.390;2023-07-30T08:42:10;22.00;99.90
12254;DHT22;6189;52.526;13.390;2023-07-30T08:44:57;22.00;99.90
12254;DHT22;6189;52.526;13.390;2023-07-30T08:47:45;22.00;99.90
12254;DHT22;6189;52.526;13.390;2023-07-30T08:50:32;22.00;99.90
12254;DHT22;6189;52.526;13.390;2023-07-30T08:53:19;22.00;99.90
12254;DHT22;6189;52.526;13.390;2023-07-30T08:56:08;22.00;99.90
12254;DHT22;6189;52.526;13.390;2023-07-30T08:58:56;22.00;99.90
12254;DHT22;6189;52.526;13.390;2023-07-30T09:01:44;22.00;99.90
12254;DHT22;6189;52.526;13.390;2023-07-30T09:04:33;22.10;99.90
12254;DHT22;6189;52.526;13.390;2023-07-30T09:07:21;22.10;99.90
12254;DHT22;6189;52.526;13.390;2023-07-30T09:10:09;22.20;99.90
12254;DHT22;6189;52.526;13.390;2023-07-30T09:12:58;22.20;99.90
12254;DHT22;6189;52.526;13.390;2023-07-30T09:15:45;22.30;99.90
12254;DHT22;6189;52.526;13.390;2023-07-30T09:18:38;22.30;99.90
12254;DHT22;6189;52.526;13.390;2023-07-30T09:21:29;22.40;99.90
12254;DHT22;6189;52.526;13.390;2023-07-30T09:24:20;22.50;99.90
12254;DHT22;6189;52.526;13.390;2023-07-30T09:27:08;22.60;99.90
12254;DHT22;6189;52.526;13.390;2023-07-30T09:29:57;22.70;99.90
12254;DHT22;6189;52.526;13.390;2023-07-30T09:32:44;23.10;99.90
12254;DHT22;6189;52.526;13.390;2023-07-30T09:35:32;23.70;99.90
12254;DHT22;6189;52.526;13.390;2023-07-30T09:38:19;24.10;99.90
12254;DHT22;6189;52.526;13.390;2023-07-30T09:41:07;24.20;99.90
12254;DHT22;6189;52.526;13.390;2023-07-30T09:43:57;24.50;99.90
12254;DHT22;6189;52.526;13.390;2023-07-30T09:46:46;24.80;99.90
12254;DHT22;6189;52.526;13.390;2023-07-30T09:49:34;25.40;99.90
12254;DHT22;6189;52.526;13.390;2023-07-30T09:52:21;25.50;99.90
12254;DHT22;6189;52.526;13.390;2023-07-30T09:55:09;25.80;99.90
12254;DHT22;6189;52.526;13.390;2023-07-30T09:57:56;26.30;99.90
12254;DHT22;6189;52.526;13.390;2023-07-30T10:00:47;26.70;99.90
12254;DHT22;6189;52.526;13.390;2023-07-30T10:03:36;27.00;99.90
12254;DHT22;6189;52.526;13.390;2023-07-30T10:06:24;27.50;99.90
12254;DHT22;6189;52.526;13.390;2023-07-30T10:09:13;27.50;99.90
12254;DHT22;6189;52.526;13.390;2023-07-30T10:12:01;27.50;99.90
12254;DHT22;6189;52.526;13.390;2023-07-30T10:14:50;27.20;99.60
12254;DHT22;6189;52.526;13.390;2023-07-30T10:17:37;26.90;99.90
12254;DHT22;6189;52.526;13.390;2023-07-30T10:20:30;26.70;99.90
12254;DHT22;6189;52.526;13.390;2023-07-30T10:23:18;26.70;99.90
12254;DHT22;6189;52.526;13.390;2023-07-30T10:26:09;27.00;99.90
12254;DHT22;6189;52.526;13.390;2023-07-30T10:29:09;27.00;99.90
12254;DHT22;6189;52.526;13.390;2023-07-30T10:31:57;27.50;98.70
12254;DHT22;6189;52.526;13.390;2023-07-30T10:34:46;27.70;97.60
12254;DHT22;6189;52.526;13.390;2023-07-30T10:37:35;27.60;98.80
12254;DHT22;6189;52.526;13.390;2023-07-30T10:40:22;27.00;98.60
12254;DHT22;6189;52.526;13.390;2023-07-30T10:43:15;26.60;98.30
12254;DHT22;6189;52.526;13.390;2023-07-30T10:46:03;26.30;99.90
12254;DHT22;6189;52.526;13.390;2023-07-30T10:48:50;26.60;99.40
12254;DHT22;6189;52.526;13.390;2023-07-30T10:51:37;26.70;97.00
12254;DHT22;6189;52.526;13.390;2023-07-30T10:54:26;27.00;97.60
12254;DHT22;6189;52.526;13.390;2023-07-30T10:57:13;27.30;96.90
12254;DHT22;6189;52.526;13.390;2023-07-30T11:00:00;27.40;96.40
12254;DHT22;6189;52.526;13.390;2023-07-30T11:02:52;27.50;93.70
12254;DHT22;6189;52.526;13.390;2023-07-30T11:05:39;27.50;94.60
12254;DHT22;6189;52.526;13.390;2023-07-30T11:08:33;27.50;97.00
12254;DHT22;6189;52.526;13.390;2023-07-30T11:11:21;27.40;94.20
12254;DHT22;6189;52.526;13.390;2023-07-30T11:14:14;27.20;92.20
12254;DHT22;6189;52.526;13.390;2023-07-30T11:17:01;27.20;92.00
12254;DHT22;6189;52.526;13.390;2023-07-30T11:19:48;27.20;92.40
12254;DHT22;6189;52.526;13.390;2023-07-30T11:22:35;27.20;92.00
12254;DHT22;6189;52.526;13.390;2023-07-30T11:25:22;27.30;91.60
12254;DHT22;6189;52.526;13.390;2023-07-30T11:28:11;27.20;90.50
12254;DHT22;6189;52.526;13.390;2023-07-30T11:30:58;27.10;91.20
12254;DHT22;6189;52.526;13.390;2023-07-30T11:33:46;26.90;91.40
12254;DHT22;6189;52.526;13.390;2023-07-30T11:36:34;26.80;91.00
12254;DHT22;6189;52.526;13.390;2023-07-30T11:39:21;26.80;91.60
12254;DHT22;6189;52.526;13.390;2023-07-30T11:42:11;26.90;89.90
12254;DHT22;6189;52.526;13.390;2023-07-30T11:45:01;27.00;88.50
12254;DHT22;6189;52.526;13.390;2023-07-30T11:48:06;27.10;90.40
12254;DHT22;6189;52.526;13.390;2023-07-30T11:50:55;27.30;88.10
12254;DHT22;6189;52.526;13.390;2023-07-30T11:53:46;27.30;86.50
12254;DHT22;6189;52.526;13.390;2023-07-30T11:56:33;27.30;86.10
12254;DHT22;6189;52.526;13.390;2023-07-30T11:59:20;27.30;85.90
12254;DHT22;6189;52.526;13.390;2023-07-30T12:02:08;27.20;85.60
12254;DHT22;6189;52.526;13.390;2023-07-30T12:04:56;27.20;84.50
12254;DHT22;6189;52.526;13.390;2023-07-30T12:07:44;27.20;83.50
12254;DHT22;6189;52.526;13.390;2023-07-30T12:13:42;26.80;85.40
12254;DHT22;6189;52.526;13.390;2023-07-30T12:16:30;26.80;84.50
12254;DHT22;6189;52.526;13.390;2023-07-30T12:19:19;26.60;85.80
12254;DHT22;6189;52.526;13.390;2023-07-30T12:22:06;26.70;83.80
12254;DHT22;6189;52.526;13.390;2023-07-30T12:24:53;26.70;82.70
12254;DHT22;6189;52.526;13.390;2023-07-30T12:27:40;26.70;82.00
12254;DHT22;6189;52.526;13.390;2023-07-30T12:30:27;26.60;80.80
12254;DHT22;6189;52.526;13.390;2023-07-30T12:33:15;26.70;83.40
12254;DHT22;6189;52.526;13.390;2023-07-30T12:36:04;26.70;84.70
12254;DHT22;6189;52.526;13.390;2023-07-30T12:38:51;26.80;83.30
12254;DHT22;6189;52.526;13.390;2023-07-30T12:41:39;26.70;84.20
12254;DHT22;6189;52.526;13.390;2023-07-30T12:44:26;26.70;85.20
12254;DHT22;6189;52.526;13.390;2023-07-30T12:47:13;26.70;86.30
12254;DHT22;6189;52.526;13.390;2023-07-30T12:50:01;26.70;84.40
12254;DHT22;6189;52.526;13.390;2023-07-30T12:52:49;26.70;83.40
12254;DHT22;6189;52.526;13.390;2023-07-30T12:55:37;26.70;85.00
12254;DHT22;6189;52.526;13.390;2023-07-30T12:58:25;26.80;84.00
12254;DHT22;6189;52.526;13.390;2023-07-30T13:01:12;26.80;86.50
12254;DHT22;6189;52.526;13.390;2023-07-30T13:03:59;26.70;84.80
12254;DHT22;6189;52.526;13.390;2023-07-30T13:06:46;26.70;86.10
12254;DHT22;6189;52.526;13.390;2023-07-30T13:09:34;26.70;86.20
12254;DHT22;6189;52.526;13.390;2023-07-30T13:12:21;26.50;83.90
12254;DHT22;6189;52.526;13.390;2023-07-30T13:15:09;26.40;85.20
12254;DHT22;6189;52.526;13.390;2023-07-30T13:17:56;26.40;85.10
12254;DHT22;6189;52.526;13.390;2023-07-30T13:20:43;26.30;84.90
12254;DHT22;6189;52.526;13.390;2023-07-30T13:23:31;26.30;86.30
12254;DHT22;6189;52.526;13.390;2023-07-30T13:26:20;26.20;82.30
12254;DHT22;6189;52.526;13.390;2023-07-30T13:29:07;26.20;82.50
12254;DHT22;6189;52.526;13.390;2023-07-30T13:31:54;26.20;82.60
12254;DHT22;6189;52.526;13.390;2023-07-30T13:34:41;26.30;78.70
12254;DHT22;6189;52.526;13.390;2023-07-30T13:37:28;26.20;77.90
12254;DHT22;6189;52.526;13.390;2023-07-30T13:40:16;26.10;76.90
12254;DHT22;6189;52.526;13.390;2023-07-30T13:43:05;26.00;77.90
12254;DHT22;6189;52.526;13.390;2023-07-30T13:45:52;25.80;79.90
12254;DHT22;6189;52.526;13.390;2023-07-30T13:48:39;25.70;77.40
12254;DHT22;6189;52.526;13.390;2023-07-30T13:51:26;25.80;76.90
12254;DHT22;6189;52.526;13.390;2023-07-30T13:54:17;25.70;75.40
12254;DHT22;6189;52.526;13.390;2023-07-30T13:57:04;25.60;74.50
12254;DHT22;6189;52.526;13.390;2023-07-30T13:59:53;25.50;76.90
12254;DHT22;6189;52.526;13.390;2023-07-30T14:02:40;25.40;75.30
12254;DHT22;6189;52.526;13.390;2023-07-30T14:05:28;25.40;76.80
12254;DHT22;6189;52.526;13.390;2023-07-30T14:08:15;25.40;79.90
12254;DHT22;6189;52.526;13.390;2023-07-30T14:11:02;25.20;82.10
12254;DHT22;6189;52.526;13.390;2023-07-30T14:13:49;25.20;81.10
12254;DHT22;6189;52.526;13.390;2023-07-30T14:16:39;25.10;82.70
12254;DHT22;6189;52.526;13.390;2023-07-30T14:19:26;25.10;81.40
12254;DHT22;6189;52.526;13.390;2023-07-30T14:22:14;25.00;86.40
12254;DHT22;6189;52.526;13.390;2023-07-30T14:25:01;24.90;85.90
12254;DHT22;6189;52.526;13.390;2023-07-30T14:27:49;24.90;88.30
12254;DHT22;6189;52.526;13.390;2023-07-30T14:30:36;24.80;85.80
12254;DHT22;6189;52.526;13.390;2023-07-30T14:33:31;24.70;85.10
12254;DHT22;6189;52.526;13.390;2023-07-30T14:36:18;24.70;89.40
12254;DHT22;6189;52.526;13.390;2023-07-30T14:39:05;24.50;90.20
12254;DHT22;6189;52.526;13.390;2023-07-30T14:41:52;24.40;88.00
12254;DHT22;6189;52.526;13.390;2023-07-30T14:44:39;24.30;90.80
12254;DHT22;6189;52.526;13.390;2023-07-30T14:47:26;24.20;91.40
12254;DHT22;6189;52.526;13.390;2023-07-30T14:50:14;24.10;88.80
12254;DHT22;6189;52.526;13.390;2023-07-30T14:53:02;23.90;91.60
12254;DHT22;6189;52.526;13.390;2023-07-30T14:55:49;23.90;91.70
12254;DHT22;6189;52.526;13.390;2023-07-30T14:58:36;23.90;91.90
12254;DHT22;6189;52.526;13.390;2023-07-30T15:01:26;23.80;93.60
12254;DHT22;6189;52.526;13.390;2023-07-30T15:04:14;23.70;94.20
12254;DHT22;6189;52.526;13.390;2023-07-30T15:07:03;23.40;93.70
12254;DHT22;6189;52.526;13.390;2023-07-30T15:09:50;23.20;95.70
12254;DHT22;6189;52.526;13.390;2023-07-30T15:12:37;23.10;99.30
12254;DHT22;6189;52.526;13.390;2023-07-30T15:15:26;23.00;98.90
12254;DHT22;6189;52.526;13.390;2023-07-30T15:18:13;22.80;99.90
12254;DHT22;6189;52.526;13.390;2023-07-30T15:21:00;22.80;99.90
12254;DHT22;6189;52.526;13.390;2023-07-30T15:23:49;22.80;99.90
12254;DHT22;6189;52.526;13.390;2023-07-30T15:26:36;22.70;99.90
12254;DHT22;6189;52.526;13.390;2023-07-30T15:29:24;22.80;99.90
12254;DHT22;6189;52.526;13.390;2023-07-30T15:32:11;22.70;99.90
12254;DHT22;6189;52.526;13.390;2023-07-30T15:34:58;22.50;99.90
12254;DHT22;6189;52.526;13.390;2023-07-30T15:37:45;22.40;99.90
12254;DHT22;6189;52.526;13.390;2023-07-30T15:40:33;22.50;99.90
12254;DHT22;6189;52.526;13.390;2023-07-30T15:43:21;22.50;99.90
12254;DHT22;6189;52.526;13.390;2023-07-30T15:46:08;22.10;99.90
12254;DHT22;6189;52.526;13.390;2023-07-30T15:48:55;22.30;99.90
12254;DHT22;6189;52.526;13.390;2023-07-30T15:51:42;22.40;99.90
12254;DHT22;6189;52.526;13.390;2023-07-30T15:54:33;22.10;99.90
12254;DHT22;6189;52.526;13.390;2023-07-30T15:57:22;22.10;99.90
12254;DHT22;6189;52.526;13.390;2023-07-30T16:00:09;22.30;99.90
12254;DHT22;6189;52.526;13.390;2023-07-30T16:02:59;22.20;99.90
12254;DHT22;6189;52.526;13.390;2023-07-30T16:05:49;22.40;99.90
12254;DHT22;6189;52.526;13.390;2023-07-30T16:08:37;22.50;99.90
12254;DHT22;6189;52.526;13.390;2023-07-30T16:11:24;22.30;99.90
12254;DHT22;6189;52.526;13.390;2023-07-30T16:14:13;22.40;99.90
12254;DHT22;6189;52.526;13.390;2023-07-30T16:17:00;22.50;99.90
12254;DHT22;6189;52.526;13.390;2023-07-30T16:19:47;22.40;99.90
12254;DHT22;6189;52.526;13.390;2023-07-30T16:22:34;22.30;99.90
12254;DHT22;6189;52.526;13.390;2023-07-30T16:25:23;22.10;99.90
12254;DHT22;6189;52.526;13.390;2023-07-30T16:28:10;22.00;99.90
12254;DHT22;6189;52.526;13.390;2023-07-30T16:31:02;22.10;99.90
12254;DHT22;6189;52.526;13.390;2023-07-30T16:33:49;22.00;99.90
12254;DHT22;6189;52.526;13.390;2023-07-30T16:36:37;21.90;99.90
12254;DHT22;6189;52.526;13.390;2023-07-30T16:39:24;22.00;99.90
12254;DHT22;6189;52.526;13.390;2023-07-30T16:42:11;21.90;99.90
12254;DHT22;6189;52.526;13.390;2023-07-30T16:44:58;21.80;99.90
12254;DHT22;6189;52.526;13.390;2023-07-30T16:47:47;21.70;99.90
12254;DHT22;6189;52.526;13.390;2023-07-30T16:50:34;21.80;99.90
12254;DHT22;6189;52.526;13.390;2023-07-30T16:53:21;22.00;99.90
12254;DHT22;6189;52.526;13.390;2023-07-30T16:56:09;21.90;99.90
12254;DHT22;6189;52.526;13.390;2023-07-30T16:58:56;21.60;99.90
12254;DHT22;6189;52.526;13.390;2023-07-30T17:01:44;21.70;99.90
12254;DHT22;6189;52.526;13.390;2023-07-30T17:04:32;21.70;99.90
12254;DHT22;6189;52.526;13.390;2023-07-30T17:07:19;21.70;99.90
12254;DHT22;6189;52.526;13.390;2023-07-30T17:10:09;21.70;99.90
12254;DHT22;6189;52.526;13.390;2023-07-30T17:12:56;21.70;99.90
12254;DHT22;6189;52.526;13.390;2023-07-30T17:15:43;21.70;99.90
12254;DHT22;6189;52.526;13.390;2023-07-30T17:18:30;21.80;99.90
12254;DHT22;6189;52.526;13.390;2023-07-30T17:21:19;21.80;99.90
12254;DHT22;6189;52.526;13.390;2023-07-30T17:24:07;21.60;99.90
12254;DHT22;6189;52.526;13.390;2023-07-30T17:26:54;21.70;99.90
12254;DHT22;6189;52.526;13.390;2023-07-30T17:29:41;21.70;99.90
12254;DHT22;6189;52.526;13.390;2023-07-30T17:32:29;21.70;99.90
12254;DHT22;6189;52.526;13.390;2023-07-30T17:35:16;21.80;99.90
12254;DHT22;6189;52.526;13.390;2023-07-30T17:38:04;21.70;99.90
12254;DHT22;6189;52.526;13.390;2023-07-30T17:40:53;21.60;99.90
12254;DHT22;6189;52.526;13.390;2023-07-30T17:43:41;21.60;99.90